Time;durP1;ratioP1;P1;durP2;ratioP2;P2;SDS_P1;SDS_P2;PMS_P1;PMS_P2;Temp;Humidity;BMP_temperature;BMP_pressure;BME280_temperature;BME280_humidity;BME280_pressure;Samples;Min_cycle;Max_cycle;Signal;HPM_P1;HPM_P2
2021/01/01 00:01:57;;;;;;;0.50;0.50;;;-0.30;99.90;;;;;;5010751;28;20201;-84
2021/01/01 00:04:23;;;;;;;0.50;0.50;;;-0.30;99.90;;;;;;5010963;28;20205;-84
2021/01/01 00:06:50;;;;;;;0.60;0.60;;;-0.20;99.90;;;;;;5010722;28;20213;-83
2021/01/01 00:09:17;;;;;;;0.60;0.60;;;-0.20;99.90;;;;;;5010317;28;20213;-84
2021/01/01 00:11:47;;;;;;;0.50;0.50;;;-0.20;99.90;;;;;;5010737;28;20268;-84
2021/01/01 00:14:13;;;;;;;0.50;0.50;;;-0.20;99.90;;;;;;5009190;28;20240;-84
2021/01/01 00:16:46;;;;;;;0.60;0.60;;;-0.20;99.90;;;;;;5008851;28;20213;-84
2021/01/01 00:19:13;;;;;;;0.50;0.50;;;-0.30;99.90;;;;;;5016372;28;20345;-83
2021/01/01 00:21:39;;;;;;;0.50;0.50;;;-0.30;99.90;;;;;;5016935;28;20657;-84
2021/01/01 00:24:07;;;;;;;0.60;0.60;;;-0.10;99.90;;;;;;5015419;28;20280;-84
2021/01/01 00:26:33;;;;;;;0.60;0.60;;;0.00;99.90;;;;;;5013093;28;20256;-84
2021/01/01 00:29:00;;;;;;;0.50;0.50;;;-0.10;99.90;;;;;;5013789;28;20204;-83
2021/01/01 00:31:27;;;;;;;0.60;0.60;;;-0.10;99.90;;;;;;5011241;28;20202;-83
2021/01/01 00:33:54;;;;;;;0.50;0.50;;;-0.10;99.90;;;;;;5011424;28;20201;-84
2021/01/01 00:36:21;;;;;;;0.50;0.50;;;-0.20;99.90;;;;;;5010494;28;20589;-84
2021/01/01 00:38:52;;;;;;;0.50;0.50;;;-0.10;99.90;;;;;;5012486;28;20237;-84
2021/01/01 00:41:34;;;;;;;0.60;0.60;;;-0.10;99.90;;;;;;5013623;28;20212;-83
2021/01/01 00:44:01;;;;;;;0.55;0.55;;;-0.60;99.90;;;;;;5013960;28;20206;-84
2021/01/01 00:46:28;;;;;;;0.50;0.50;;;0.80;99.90;;;;;;5012943;28;20205;-84
2021/01/01 00:49:03;;;;;;;0.50;0.50;;;-0.10;99.90;;;;;;5011905;28;20228;-86
2021/01/01 00:51:32;;;;;;;0.50;0.50;;;-0.20;99.90;;;;;;5011599;28;20205;-85
2021/01/01 00:54:00;;;;;;;0.60;0.60;;;-0.20;99.90;;;;;;5015000;28;20220;-84
2021/01/01 00:56:27;;;;;;;0.50;0.50;;;-0.10;99.90;;;;;;5015552;28;20201;-84
2021/01/01 00:58:55;;;;;;;0.50;0.50;;;-0.10;99.90;;;;;;5015568;28;20670;-84
2021/01/01 01:01:22;;;;;;;0.50;0.50;;;-0.60;99.90;;;;;;5015278;28;20256;-84
2021/01/01 01:03:49;;;;;;;0.50;0.50;;;-0.10;99.90;;;;;;5013481;28;20212;-84
2021/01/01 01:06:16;;;;;;;0.50;0.50;;;0.00;99.90;;;;;;5013576;28;20693;-83
2021/01/01 01:08:47;;;;;;;0.52;0.52;;;0.00;99.90;;;;;;5013678;28;20248;-84
2021/01/01 01:11:15;;;;;;;0.50;0.50;;;0.30;99.90;;;;;;5013474;28;20221;-83
2021/01/01 01:13:45;;;;;;;0.50;0.50;;;-0.20;99.90;;;;;;5014021;28;20206;-84
2021/01/01 01:16:20;;;;;;;0.55;0.55;;;-0.40;99.90;;;;;;5013591;28;20205;-84
2021/01/01 01:18:46;;;;;;;0.50;0.50;;;0.40;99.90;;;;;;5013991;28;20233;-84
2021/01/01 01:21:13;;;;;;;0.50;0.50;;;0.10;99.90;;;;;;5013056;28;20217;-84
2021/01/01 01:23:40;;;;;;;0.60;0.60;;;0.20;99.90;;;;;;5009357;28;20198;-84
2021/01/01 01:26:10;;;;;;;0.50;0.50;;;1.20;99.90;;;;;;4995723;28;20198;-84
2021/01/01 01:28:38;;;;;;;0.60;0.60;;;0.30;99.90;;;;;;4995573;28;20210;-84
2021/01/01 01:31:05;;;;;;;0.50;0.50;;;0.10;99.90;;;;;;4995248;28;20206;-84
2021/01/01 01:33:33;;;;;;;0.50;0.50;;;0.20;99.90;;;;;;4995266;28;20205;-83
2021/01/01 01:36:00;;;;;;;0.50;0.50;;;1.50;99.90;;;;;;4995195;28;20206;-82
2021/01/01 01:38:26;;;;;;;0.50;0.50;;;0.40;99.90;;;;;;4993258;28;20234;-84
2021/01/01 01:40:53;;;;;;;0.50;0.50;;;0.40;99.90;;;;;;4995158;28;20206;-84
2021/01/01 01:43:22;;;;;;;0.50;0.50;;;0.30;99.90;;;;;;4995380;28;20221;-83
2021/01/01 01:45:49;;;;;;;0.50;0.50;;;0.40;99.90;;;;;;4995362;28;20202;-83
2021/01/01 01:48:27;;;;;;;0.50;0.50;;;0.30;99.90;;;;;;4994834;28;20214;-84
2021/01/01 01:50:54;;;;;;;0.50;0.50;;;0.30;99.90;;;;;;4994726;28;20733;-84
2021/01/01 01:53:25;;;;;;;0.50;0.50;;;0.40;99.90;;;;;;4994868;28;20579;-84
2021/01/01 01:55:53;;;;;;;0.50;0.50;;;0.40;99.90;;;;;;4995025;28;20256;-83
2021/01/01 01:58:20;;;;;;;0.50;0.50;;;0.40;99.90;;;;;;4992721;28;20235;-86
2021/01/01 02:00:57;;;;;;;0.50;0.50;;;0.40;99.90;;;;;;4991530;28;20213;-84
2021/01/01 02:03:27;;;;;;;0.50;0.50;;;0.40;99.90;;;;;;4994712;28;20210;-84
2021/01/01 02:05:53;;;;;;;0.50;0.50;;;0.00;99.90;;;;;;4994377;28;20210;-83
2021/01/01 02:08:20;;;;;;;0.50;0.50;;;0.40;99.90;;;;;;4993859;28;20202;-84
2021/01/01 02:10:47;;;;;;;0.47;0.47;;;0.40;99.90;;;;;;4994633;28;20217;-83
2021/01/01 02:13:17;;;;;;;0.50;0.50;;;0.50;99.90;;;;;;4993322;28;20210;-83
2021/01/01 02:15:43;;;;;;;0.50;0.50;;;0.40;99.90;;;;;;4994097;28;20210;-85
2021/01/01 02:18:12;;;;;;;0.50;0.50;;;0.50;99.90;;;;;;4994902;28;20229;-85
2021/01/01 02:20:38;;;;;;;0.50;0.50;;;1.40;99.90;;;;;;4994382;28;20265;-85
2021/01/01 02:23:06;;;;;;;0.50;0.50;;;0.40;99.90;;;;;;4994616;28;20261;-85
2021/01/01 02:25:32;;;;;;;0.50;0.50;;;0.40;99.90;;;;;;4994502;28;20253;-84
2021/01/01 02:28:04;;;;;;;0.50;0.50;;;0.80;99.90;;;;;;4994466;28;20605;-85
2021/01/01 02:30:35;;;;;;;0.50;0.50;;;0.40;99.90;;;;;;4994157;28;20233;-85
2021/01/01 02:33:01;;;;;;;0.50;0.50;;;0.40;99.90;;;;;;4994483;28;20210;-85
2021/01/01 02:35:33;;;;;;;0.50;0.50;;;0.40;99.90;;;;;;4994100;28;20852;-84
2021/01/01 02:37:59;;;;;;;0.50;0.50;;;1.30;99.90;;;;;;4994479;28;20688;-84
2021/01/01 02:40:26;;;;;;;0.50;0.50;;;0.40;99.90;;;;;;4994038;28;20237;-85
2021/01/01 02:42:52;;;;;;;0.50;0.50;;;0.40;99.90;;;;;;4993138;28;20209;-85
2021/01/01 02:45:18;;;;;;;0.50;0.50;;;0.60;99.90;;;;;;4993272;28;20218;-84
2021/01/01 02:47:45;;;;;;;0.50;0.50;;;0.50;99.90;;;;;;4993263;28;20206;-85
2021/01/01 02:50:12;;;;;;;0.50;0.50;;;0.50;99.90;;;;;;4992954;28;20207;-85
2021/01/01 02:52:41;;;;;;;0.50;0.50;;;0.50;99.90;;;;;;4993340;28;20210;-84
2021/01/01 02:55:09;;;;;;;0.50;0.50;;;0.50;99.90;;;;;;4993442;28;20289;-85
2021/01/01 02:57:40;;;;;;;0.50;0.50;;;0.50;99.90;;;;;;4993789;28;20210;-84
2021/01/01 03:00:10;;;;;;;0.50;0.50;;;0.50;99.90;;;;;;4994098;28;20619;-84
2021/01/01 03:02:38;;;;;;;0.50;0.50;;;0.00;99.90;;;;;;4994277;28;20211;-84
2021/01/01 03:05:09;;;;;;;0.50;0.50;;;0.50;99.90;;;;;;4993714;28;20215;-84
2021/01/01 03:07:37;;;;;;;0.50;0.50;;;0.50;99.90;;;;;;4993743;28;20214;-84
2021/01/01 03:10:05;;;;;;;0.50;0.50;;;0.50;99.90;;;;;;4993360;28;20202;-85
2021/01/01 03:12:37;;;;;;;0.57;0.57;;;0.50;99.90;;;;;;4993656;28;20210;-85
2021/01/01 03:15:04;;;;;;;0.50;0.50;;;0.50;99.90;;;;;;4993460;28;20210;-84
2021/01/01 03:17:31;;;;;;;0.50;0.50;;;0.50;99.90;;;;;;4993119;28;20329;-84
2021/01/01 03:19:57;;;;;;;0.50;0.50;;;0.50;99.90;;;;;;4993108;28;20230;-85
2021/01/01 03:22:23;;;;;;;0.50;0.50;;;0.50;99.90;;;;;;4993297;28;20669;-85
2021/01/01 03:24:49;;;;;;;0.50;0.50;;;0.20;99.90;;;;;;4993243;28;20241;-84
2021/01/01 03:27:16;;;;;;;0.50;0.50;;;0.50;99.90;;;;;;4993479;28;20207;-84
2021/01/01 03:29:46;;;;;;;0.50;0.50;;;0.50;99.90;;;;;;4992283;28;20217;-85
2021/01/01 03:32:13;;;;;;;0.50;0.50;;;0.50;99.90;;;;;;4992246;28;20209;-85
2021/01/01 03:34:40;;;;;;;0.50;0.50;;;0.50;99.90;;;;;;4992648;28;20211;-85
2021/01/01 03:37:06;;;;;;;0.60;0.60;;;1.00;99.90;;;;;;4992489;28;20206;-84
2021/01/01 03:39:32;;;;;;;0.50;0.50;;;0.60;99.90;;;;;;4992373;28;20237;-84
2021/01/01 03:41:58;;;;;;;0.52;0.52;;;0.40;99.90;;;;;;4993413;28;20210;-84
2021/01/01 03:44:24;;;;;;;0.50;0.50;;;0.60;99.90;;;;;;4993079;28;20249;-84
2021/01/01 03:46:54;;;;;;;0.50;0.50;;;0.60;99.90;;;;;;4992730;28;20205;-84
2021/01/01 03:49:21;;;;;;;0.50;0.50;;;0.60;99.90;;;;;;4993030;28;20592;-85
2021/01/01 03:51:47;;;;;;;0.50;0.50;;;0.60;99.90;;;;;;4992428;28;20717;-84
2021/01/01 03:54:14;;;;;;;0.50;0.50;;;0.60;99.90;;;;;;4992649;28;20206;-85
2021/01/01 03:56:41;;;;;;;0.57;0.57;;;0.60;99.90;;;;;;4992915;28;20532;-84
2021/01/01 03:59:10;;;;;;;0.50;0.50;;;0.60;99.90;;;;;;4992618;28;20700;-85
2021/01/01 04:01:36;;;;;;;0.50;0.50;;;0.50;99.90;;;;;;4992432;28;20217;-84
2021/01/01 04:04:03;;;;;;;0.50;0.50;;;0.60;99.90;;;;;;4993008;28;20217;-84
2021/01/01 04:06:30;;;;;;;0.50;0.50;;;0.60;99.90;;;;;;4992610;28;20206;-84
2021/01/01 04:08:56;;;;;;;0.50;0.50;;;0.60;99.90;;;;;;4992687;28;20207;-84
2021/01/01 04:11:22;;;;;;;0.40;0.40;;;0.60;99.90;;;;;;4992708;28;20202;-84
2021/01/01 04:13:50;;;;;;;0.50;0.50;;;0.60;99.90;;;;;;4992225;28;20214;-84
2021/01/01 04:16:17;;;;;;;0.50;0.50;;;0.60;99.90;;;;;;4992388;28;20218;-84
2021/01/01 04:18:43;;;;;;;0.50;0.50;;;0.60;99.90;;;;;;4992394;28;20229;-84
2021/01/01 04:21:10;;;;;;;0.47;0.47;;;0.40;99.90;;;;;;4992206;28;20249;-85
2021/01/01 04:23:36;;;;;;;0.50;0.50;;;0.70;99.90;;;;;;4992214;28;20203;-84
2021/01/01 04:26:03;;;;;;;0.50;0.50;;;0.60;99.90;;;;;;4992585;28;20261;-84
2021/01/01 04:28:32;;;;;;;0.57;0.57;;;0.60;99.90;;;;;;4991467;28;20317;-84
2021/01/01 04:30:58;;;;;;;0.50;0.50;;;0.60;99.90;;;;;;4991966;28;20210;-85
2021/01/01 04:33:24;;;;;;;0.50;0.50;;;1.00;99.90;;;;;;4992069;28;20665;-85
2021/01/01 04:35:50;;;;;;;0.50;0.50;;;0.70;99.90;;;;;;4991471;28;20209;-85
2021/01/01 04:38:20;;;;;;;0.50;0.50;;;0.70;99.90;;;;;;4992437;28;20237;-86
2021/01/01 04:40:52;;;;;;;0.50;0.50;;;0.50;99.90;;;;;;4992252;28;20209;-86
2021/01/01 04:43:21;;;;;;;0.50;0.50;;;0.70;99.90;;;;;;4992466;28;20264;-86
2021/01/01 04:45:47;;;;;;;0.50;0.50;;;0.70;99.90;;;;;;4991725;28;20202;-85
2021/01/01 04:48:13;;;;;;;0.50;0.50;;;0.70;99.90;;;;;;4992122;28;20213;-86
2021/01/01 04:50:40;;;;;;;0.50;0.50;;;0.70;99.90;;;;;;4990479;28;20202;-85
2021/01/01 04:53:10;;;;;;;0.50;0.50;;;0.70;99.90;;;;;;4992091;28;20206;-85
2021/01/01 04:55:37;;;;;;;0.50;0.50;;;0.50;99.90;;;;;;4991400;28;20268;-86
2021/01/01 04:58:04;;;;;;;0.60;0.60;;;0.50;99.90;;;;;;4992337;28;20257;-85
2021/01/01 05:00:33;;;;;;;0.50;0.50;;;0.60;99.90;;;;;;4987751;28;20207;-85
2021/01/01 05:02:59;;;;;;;0.50;0.50;;;0.60;99.90;;;;;;4972272;28;20215;-85
2021/01/01 05:05:30;;;;;;;0.50;0.50;;;0.60;99.90;;;;;;4972415;28;20281;-85
2021/01/01 05:07:56;;;;;;;0.50;0.50;;;2.10;99.90;;;;;;4972515;28;20207;-85
2021/01/01 05:10:22;;;;;;;0.50;0.50;;;0.60;99.90;;;;;;4972091;28;20206;-85
2021/01/01 05:12:49;;;;;;;0.50;0.50;;;0.60;99.90;;;;;;4972249;28;20223;-85
2021/01/01 05:15:33;;;;;;;0.50;0.50;;;0.60;99.90;;;;;;4972373;28;20218;-85
2021/01/01 05:18:01;;;;;;;0.50;0.50;;;0.60;99.90;;;;;;4972202;28;20233;-85
2021/01/01 05:20:28;;;;;;;0.50;0.50;;;0.50;99.90;;;;;;4971994;28;20247;-85
2021/01/01 05:22:57;;;;;;;0.50;0.50;;;0.50;99.90;;;;;;4972475;28;20586;-85
2021/01/01 05:25:25;;;;;;;0.50;0.50;;;0.50;99.90;;;;;;4987615;28;20357;-85
2021/01/01 05:28:00;;;;;;;0.50;0.50;;;0.40;99.90;;;;;;4991720;28;20313;-85
2021/01/01 05:30:32;;;;;;;0.50;0.50;;;0.40;99.90;;;;;;4991328;28;20198;-85
2021/01/01 05:33:00;;;;;;;0.50;0.50;;;0.40;99.90;;;;;;4990851;28;20214;-85
2021/01/01 05:35:27;;;;;;;0.50;0.50;;;0.40;99.90;;;;;;4990755;28;20211;-85
2021/01/01 05:37:54;;;;;;;0.50;0.50;;;0.30;99.90;;;;;;4990841;28;20220;-85
2021/01/01 05:40:29;;;;;;;0.50;0.50;;;0.40;99.90;;;;;;4994720;28;20281;-85
2021/01/01 05:42:56;;;;;;;0.50;0.50;;;0.30;99.90;;;;;;4994373;28;20212;-85
2021/01/01 05:45:26;;;;;;;0.50;0.50;;;0.30;99.90;;;;;;4993814;28;20606;-85
2021/01/01 05:48:04;;;;;;;0.50;0.50;;;0.30;99.90;;;;;;4994215;28;20217;-85
2021/01/01 05:50:30;;;;;;;0.50;0.50;;;0.40;99.90;;;;;;4993414;28;20206;-85
2021/01/01 05:53:09;;;;;;;0.50;0.50;;;0.40;99.90;;;;;;4994232;28;20210;-84
2021/01/01 05:55:35;;;;;;;0.50;0.50;;;0.40;99.90;;;;;;4993434;28;20205;-86
2021/01/01 05:58:02;;;;;;;0.50;0.50;;;0.40;99.90;;;;;;4993781;28;20578;-84
2021/01/01 06:00:30;;;;;;;0.50;0.50;;;0.40;99.90;;;;;;4993764;28;20229;-84
2021/01/01 06:02:57;;;;;;;0.50;0.50;;;0.40;99.90;;;;;;4993639;28;20210;-85
2021/01/01 06:05:27;;;;;;;0.50;0.50;;;0.40;99.90;;;;;;4993701;28;20234;-85
2021/01/01 06:07:57;;;;;;;0.50;0.50;;;0.50;99.90;;;;;;4993898;28;20206;-85
2021/01/01 06:10:26;;;;;;;0.50;0.50;;;0.60;99.90;;;;;;4994119;28;20257;-85
2021/01/01 06:12:53;;;;;;;0.52;0.52;;;0.40;99.90;;;;;;4993509;28;20237;-84
2021/01/01 06:15:23;;;;;;;0.50;0.50;;;0.50;99.90;;;;;;4995078;28;20269;-85
2021/01/01 06:17:50;;;;;;;0.50;0.50;;;0.50;99.90;;;;;;4995131;28;20217;-85
2021/01/01 06:20:18;;;;;;;0.50;0.50;;;0.50;99.90;;;;;;4994570;28;20230;-85
2021/01/01 06:23:00;;;;;;;0.50;0.50;;;0.50;99.90;;;;;;4994631;28;20225;-85
2021/01/01 06:25:27;;;;;;;0.50;0.50;;;0.50;99.90;;;;;;4994251;28;20288;-85
2021/01/01 06:27:53;;;;;;;0.50;0.50;;;0.50;99.90;;;;;;4993188;28;20207;-85
2021/01/01 06:30:23;;;;;;;0.50;0.50;;;0.50;99.90;;;;;;4993084;28;20241;-85
2021/01/01 06:32:50;;;;;;;0.50;0.50;;;0.50;99.90;;;;;;4993230;28;20210;-85
2021/01/01 06:35:19;;;;;;;0.50;0.50;;;0.50;99.90;;;;;;4993799;28;20202;-85
2021/01/01 06:37:49;;;;;;;0.50;0.50;;;0.60;99.90;;;;;;4994730;28;20210;-86
2021/01/01 06:40:35;;;;;;;0.50;0.50;;;0.50;99.90;;;;;;4993934;28;20230;-85
2021/01/01 06:43:04;;;;;;;0.50;0.50;;;0.60;99.90;;;;;;4994289;28;20217;-85
2021/01/01 06:45:39;;;;;;;0.50;0.50;;;0.60;99.90;;;;;;4994205;28;20210;-85
2021/01/01 06:48:08;;;;;;;0.50;0.50;;;0.60;99.90;;;;;;4993943;28;20240;-86
2021/01/01 06:50:37;;;;;;;0.50;0.50;;;0.60;99.90;;;;;;4993439;28;20206;-85
2021/01/01 06:53:05;;;;;;;0.50;0.50;;;0.60;99.90;;;;;;4994316;28;20214;-86
2021/01/01 06:55:32;;;;;;;0.50;0.50;;;0.60;99.90;;;;;;4993745;28;20207;-85
2021/01/01 06:58:01;;;;;;;0.50;0.50;;;0.60;99.90;;;;;;4992475;28;20356;-85
2021/01/01 07:00:53;;;;;;;0.50;0.50;;;0.70;99.90;;;;;;4993717;28;20226;-86
2021/01/01 07:03:39;;;;;;;0.50;0.50;;;0.70;99.90;;;;;;4993883;28;20213;-85
2021/01/01 07:06:35;;;;;;;0.50;0.50;;;0.60;99.90;;;;;;4993722;28;20212;-86
2021/01/01 07:09:06;;;;;;;0.50;0.50;;;0.60;99.90;;;;;;4993660;28;20370;-86
2021/01/01 07:11:34;;;;;;;0.50;0.50;;;0.60;99.90;;;;;;4993463;28;20210;-86
2021/01/01 07:14:06;;;;;;;0.50;0.50;;;0.60;99.90;;;;;;4993867;28;20210;-86
2021/01/01 07:16:35;;;;;;;0.50;0.50;;;0.60;99.90;;;;;;4993572;28;20210;-86
2021/01/01 07:19:02;;;;;;;0.50;0.50;;;0.60;99.90;;;;;;4993737;28;20609;-85
2021/01/01 07:21:29;;;;;;;0.50;0.50;;;0.60;99.90;;;;;;4993353;28;20233;-86
2021/01/01 07:23:56;;;;;;;0.50;0.50;;;0.60;99.90;;;;;;4993328;28;20281;-86
2021/01/01 07:26:27;;;;;;;0.50;0.50;;;0.70;99.90;;;;;;4993664;28;20225;-85
2021/01/01 07:28:55;;;;;;;0.50;0.50;;;0.60;99.90;;;;;;4993319;28;20209;-85
2021/01/01 07:31:21;;;;;;;0.50;0.50;;;0.60;99.90;;;;;;4992860;28;20206;-86
2021/01/01 07:33:49;;;;;;;0.50;0.50;;;0.60;99.90;;;;;;4993490;28;20206;-86
2021/01/01 07:36:16;;;;;;;0.50;0.50;;;0.60;99.90;;;;;;4993300;28;20356;-86
2021/01/01 07:38:45;;;;;;;0.50;0.50;;;0.60;99.90;;;;;;4992778;28;20854;-85
2021/01/01 07:41:11;;;;;;;0.50;0.50;;;0.60;99.90;;;;;;4993091;28;20605;-84
2021/01/01 07:43:38;;;;;;;0.50;0.50;;;0.70;99.90;;;;;;4992603;28;20202;-84
2021/01/01 07:46:06;;;;;;;0.50;0.50;;;0.70;99.90;;;;;;4992670;28;20639;-84
2021/01/01 07:48:33;;;;;;;0.50;0.50;;;0.70;99.90;;;;;;4993130;28;20210;-85
2021/01/01 07:51:02;;;;;;;0.50;0.50;;;0.60;99.90;;;;;;4992702;28;20662;-84
2021/01/01 07:53:28;;;;;;;0.50;0.50;;;0.70;99.90;;;;;;4992835;28;20225;-84
2021/01/01 07:55:59;;;;;;;0.50;0.50;;;0.60;99.90;;;;;;4992509;28;20646;-84
2021/01/01 07:58:27;;;;;;;0.50;0.50;;;0.60;99.90;;;;;;4992939;28;20210;-84
2021/01/01 08:01:00;;;;;;;0.50;0.50;;;0.60;99.90;;;;;;4992706;28;20202;-84
2021/01/01 08:03:26;;;;;;;0.50;0.50;;;0.60;99.90;;;;;;4993009;28;20209;-84
2021/01/01 08:05:53;;;;;;;0.50;0.50;;;0.60;99.90;;;;;;4992237;28;20202;-84
2021/01/01 08:08:22;;;;;;;0.50;0.50;;;0.60;99.90;;;;;;4992944;28;20202;-84
2021/01/01 08:10:50;;;;;;;0.60;0.60;;;0.60;99.90;;;;;;4992604;28;20247;-84
2021/01/01 08:13:17;;;;;;;0.50;0.50;;;0.60;99.90;;;;;;4992689;28;20260;-84
2021/01/01 08:15:43;;;;;;;0.50;0.50;;;0.70;99.90;;;;;;4992483;28;20214;-84
2021/01/01 08:18:11;;;;;;;0.50;0.50;;;0.70;99.90;;;;;;4992668;28;20268;-84
2021/01/01 08:20:38;;;;;;;0.50;0.50;;;0.70;99.90;;;;;;4992153;28;20321;-85
2021/01/01 08:23:09;;;;;;;0.50;0.50;;;0.70;99.90;;;;;;4992303;28;20221;-85
2021/01/01 08:25:37;;;;;;;0.50;0.50;;;0.70;99.90;;;;;;4992369;28;20242;-85
2021/01/01 08:28:05;;;;;;;0.50;0.50;;;0.50;99.90;;;;;;4991475;28;20210;-84
2021/01/01 08:30:31;;;;;;;0.50;0.50;;;0.70;99.90;;;;;;4990955;28;20265;-84
2021/01/01 08:32:58;;;;;;;0.50;0.50;;;0.70;99.90;;;;;;4991524;28;20213;-85
2021/01/01 08:35:25;;;;;;;0.50;0.50;;;0.70;99.90;;;;;;4991597;28;20210;-85
2021/01/01 08:37:51;;;;;;;0.50;0.50;;;0.60;99.90;;;;;;4991949;28;20217;-85
2021/01/01 08:40:17;;;;;;;0.50;0.50;;;0.60;99.90;;;;;;4991778;28;20230;-85
2021/01/01 08:42:44;;;;;;;0.50;0.50;;;0.60;99.90;;;;;;4991215;28;20206;-84
2021/01/01 08:45:15;;;;;;;0.50;0.50;;;0.60;99.90;;;;;;4990262;28;20206;-84
2021/01/01 08:47:43;;;;;;;0.50;0.50;;;0.70;99.90;;;;;;4990518;28;20213;-84
2021/01/01 08:50:21;;;;;;;0.50;0.50;;;0.70;99.90;;;;;;4990398;28;20202;-84
2021/01/01 08:52:50;;;;;;;0.50;0.50;;;0.70;99.90;;;;;;4990370;28;20206;-84
2021/01/01 08:55:16;;;;;;;0.50;0.50;;;0.70;99.90;;;;;;4990247;28;20901;-84
2021/01/01 08:57:46;;;;;;;0.50;0.50;;;0.70;99.90;;;;;;4991841;28;20210;-84
2021/01/01 09:00:13;;;;;;;0.50;0.50;;;0.70;99.90;;;;;;4991801;28;20709;-85
2021/01/01 09:02:41;;;;;;;0.50;0.50;;;0.80;99.90;;;;;;4991332;28;20210;-85
2021/01/01 09:05:14;;;;;;;0.50;0.50;;;0.80;99.90;;;;;;4990191;28;20202;-85
2021/01/01 09:07:41;;;;;;;0.50;0.50;;;0.90;99.90;;;;;;4991317;28;20210;-85
2021/01/01 09:10:20;;;;;;;0.50;0.50;;;0.90;99.90;;;;;;4990921;28;20206;-85
2021/01/01 09:12:47;;;;;;;0.50;0.50;;;0.90;99.90;;;;;;4991689;28;20198;-85
2021/01/01 09:15:27;;;;;;;0.50;0.50;;;1.00;99.90;;;;;;4993737;28;20206;-85
2021/01/01 09:18:05;;;;;;;0.50;0.50;;;1.10;99.90;;;;;;4994346;28;20205;-85
2021/01/01 09:20:32;;;;;;;0.50;0.50;;;1.10;99.90;;;;;;4994575;28;20570;-84
2021/01/01 09:23:02;;;;;;;0.50;0.50;;;1.10;99.90;;;;;;4994053;28;20217;-84
2021/01/01 09:25:30;;;;;;;0.50;0.50;;;1.10;99.90;;;;;;4993682;28;20238;-85
2021/01/01 09:27:57;;;;;;;0.50;0.50;;;1.20;99.90;;;;;;4994637;28;20221;-84
2021/01/01 09:30:26;;;;;;;0.50;0.50;;;1.20;99.90;;;;;;4995659;28;20582;-85
2021/01/01 09:32:54;;;;;;;0.50;0.50;;;1.20;99.90;;;;;;4995566;28;20206;-84
2021/01/01 09:35:20;;;;;;;0.50;0.50;;;1.20;99.90;;;;;;4995174;28;20206;-84
2021/01/01 09:37:47;;;;;;;0.50;0.50;;;1.30;99.90;;;;;;4995754;28;20225;-85
2021/01/01 09:40:15;;;;;;;0.50;0.50;;;1.30;99.90;;;;;;4995097;28;20285;-85
2021/01/01 09:42:41;;;;;;;0.50;0.50;;;1.30;99.90;;;;;;4995338;28;20315;-85
2021/01/01 09:45:09;;;;;;;0.50;0.50;;;1.30;99.90;;;;;;4995383;28;20202;-85
2021/01/01 09:47:36;;;;;;;0.50;0.50;;;1.40;99.90;;;;;;4994738;28;20194;-85
2021/01/01 09:50:03;;;;;;;0.50;0.50;;;1.40;99.90;;;;;;4994641;28;20207;-84
2021/01/01 09:52:29;;;;;;;0.50;0.50;;;1.40;99.90;;;;;;4995161;28;20222;-84
2021/01/01 09:54:55;;;;;;;0.50;0.50;;;1.50;99.90;;;;;;4995487;28;20257;-85
2021/01/01 09:57:21;;;;;;;0.50;0.50;;;1.50;99.90;;;;;;4995437;28;20201;-84
2021/01/01 09:59:48;;;;;;;0.50;0.50;;;1.50;99.90;;;;;;4994998;28;20226;-84
2021/01/01 10:02:15;;;;;;;0.50;0.50;;;1.50;99.90;;;;;;4995237;28;20206;-85
2021/01/01 10:04:42;;;;;;;0.50;0.50;;;1.50;99.90;;;;;;4995113;28;20211;-85
2021/01/01 10:07:08;;;;;;;0.50;0.50;;;1.50;99.90;;;;;;4994816;28;20221;-85
2021/01/01 10:09:34;;;;;;;0.50;0.50;;;1.50;99.90;;;;;;4995207;28;20241;-84
2021/01/01 10:12:04;;;;;;;0.50;0.50;;;1.50;99.90;;;;;;4994692;28;20205;-84
2021/01/01 10:14:30;;;;;;;0.50;0.50;;;1.50;99.90;;;;;;4994944;28;20566;-85
2021/01/01 10:16:56;;;;;;;0.50;0.50;;;1.60;99.90;;;;;;4994927;28;20616;-85
2021/01/01 10:19:23;;;;;;;0.50;0.50;;;1.60;99.90;;;;;;4994571;28;20230;-85
2021/01/01 10:21:49;;;;;;;0.50;0.50;;;1.60;99.90;;;;;;4994847;28;20210;-84
2021/01/01 10:24:15;;;;;;;0.45;0.45;;;1.90;99.90;;;;;;4994424;28;20234;-85
2021/01/01 10:26:47;;;;;;;0.50;0.50;;;1.90;99.90;;;;;;4993414;28;20222;-85
2021/01/01 10:29:13;;;;;;;0.50;0.50;;;2.00;99.90;;;;;;4994461;28;20256;-85
2021/01/01 10:31:39;;;;;;;0.50;0.50;;;2.00;99.90;;;;;;4994117;28;20692;-85
2021/01/01 10:34:05;;;;;;;0.50;0.50;;;2.00;99.90;;;;;;4993497;28;20621;-85
2021/01/01 10:36:32;;;;;;;0.50;0.50;;;2.10;99.90;;;;;;4993391;28;20203;-86
2021/01/01 10:38:58;;;;;;;0.50;0.50;;;2.10;99.90;;;;;;4993076;28;20230;-85
2021/01/01 10:41:25;;;;;;;0.50;0.50;;;2.10;99.90;;;;;;4993024;28;20257;-85
2021/01/01 10:43:51;;;;;;;0.50;0.50;;;2.10;99.90;;;;;;4994024;28;20207;-85
2021/01/01 10:46:17;;;;;;;0.50;0.50;;;2.10;99.90;;;;;;4994385;28;20206;-85
2021/01/01 10:48:43;;;;;;;0.50;0.50;;;2.10;99.90;;;;;;4994401;28;20206;-85
2021/01/01 10:51:09;;;;;;;0.50;0.50;;;2.20;99.90;;;;;;4993974;28;20210;-85
2021/01/01 10:53:38;;;;;;;0.50;0.50;;;2.20;99.90;;;;;;4994135;28;20210;-85
2021/01/01 10:56:04;;;;;;;0.50;0.50;;;2.20;99.90;;;;;;4993865;28;20210;-85
2021/01/01 10:58:31;;;;;;;0.50;0.50;;;2.10;99.90;;;;;;4994355;28;20556;-86
2021/01/01 11:00:57;;;;;;;0.50;0.50;;;1.90;99.90;;;;;;4993006;28;20226;-85
2021/01/01 11:03:23;;;;;;;0.50;0.50;;;2.20;99.90;;;;;;4993283;28;20202;-84
2021/01/01 11:05:49;;;;;;;0.50;0.50;;;2.30;99.90;;;;;;4992769;28;20202;-84
2021/01/01 11:08:15;;;;;;;0.50;0.50;;;2.40;99.90;;;;;;4992790;28;20213;-85
2021/01/01 11:10:43;;;;;;;0.50;0.50;;;2.60;99.90;;;;;;4992387;28;20203;-85
2021/01/01 11:13:09;;;;;;;0.47;0.47;;;2.80;99.90;;;;;;4992348;28;20341;-85
2021/01/01 12:19:55;;;;;;;0.50;0.50;;;2.70;99.90;;;;;;4992258;28;20330;-84
2021/01/01 12:22:24;;;;;;;0.50;0.50;;;2.80;99.90;;;;;;4992707;28;20233;-84
2021/01/01 12:24:50;;;;;;;0.50;0.50;;;2.90;99.90;;;;;;4991814;28;20242;-84
2021/01/01 12:27:18;;;;;;;0.50;0.50;;;2.90;99.90;;;;;;4990882;28;20218;-84
2021/01/01 12:29:44;;;;;;;0.50;0.50;;;2.90;99.90;;;;;;4991475;28;20207;-84
2021/01/01 12:32:15;;;;;;;0.50;0.50;;;2.90;99.90;;;;;;4991959;28;20257;-84
2021/01/01 12:34:44;;;;;;;0.50;0.50;;;3.00;99.90;;;;;;4991784;28;20572;-84
2021/01/01 12:37:11;;;;;;;0.50;0.50;;;2.90;99.90;;;;;;4991890;28;20206;-84
2021/01/01 12:39:40;;;;;;;0.50;0.50;;;2.90;99.90;;;;;;4992523;28;20234;-85
2021/01/01 12:42:07;;;;;;;0.50;0.50;;;3.00;99.90;;;;;;4992049;28;20553;-85
2021/01/01 12:44:37;;;;;;;0.50;0.50;;;2.90;99.90;;;;;;4991946;28;20211;-85
2021/01/01 12:47:03;;;;;;;0.50;0.50;;;2.70;99.90;;;;;;4991324;28;20209;-85
2021/01/01 12:49:31;;;;;;;0.50;0.50;;;2.70;99.90;;;;;;4991541;28;20202;-85
2021/01/01 12:51:57;;;;;;;0.50;0.50;;;2.80;99.90;;;;;;4992381;28;20585;-85
2021/01/01 12:54:26;;;;;;;0.50;0.50;;;2.80;99.90;;;;;;4991690;28;20210;-86
2021/01/01 12:56:54;;;;;;;0.50;0.50;;;2.80;99.90;;;;;;4991849;28;20294;-86
2021/01/01 12:59:20;;;;;;;0.50;0.50;;;2.70;99.90;;;;;;4992273;28;20222;-86
2021/01/01 13:01:47;;;;;;;0.50;0.50;;;2.90;99.90;;;;;;4992042;28;20214;-86
2021/01/01 13:04:13;;;;;;;0.50;0.50;;;2.90;99.90;;;;;;4991792;28;20206;-86
2021/01/01 13:06:40;;;;;;;0.50;0.50;;;2.90;99.90;;;;;;4992072;28;20198;-86
2021/01/01 13:09:09;;;;;;;0.50;0.50;;;4.30;99.90;;;;;;4992030;28;20772;-86
2021/01/01 13:11:41;;;;;;;0.50;0.50;;;3.00;99.90;;;;;;4991754;28;20205;-86
2021/01/01 13:14:09;;;;;;;0.50;0.50;;;3.00;99.90;;;;;;4991521;28;20202;-86
2021/01/01 13:16:38;;;;;;;0.50;0.50;;;2.50;99.90;;;;;;4991592;28;20208;-86
2021/01/01 13:19:05;;;;;;;0.50;0.50;;;3.80;99.90;;;;;;4991737;28;20582;-86
2021/01/01 13:21:33;;;;;;;0.50;0.50;;;3.10;99.90;;;;;;4992022;28;20217;-86
2021/01/01 13:24:01;;;;;;;0.50;0.50;;;3.10;99.90;;;;;;4990255;28;20803;-87
2021/01/01 13:26:30;;;;;;;0.50;0.50;;;3.10;99.90;;;;;;4991442;28;20218;-86
2021/01/01 13:28:58;;;;;;;0.50;0.50;;;2.60;99.90;;;;;;4990834;28;20728;-86
2021/01/01 13:31:34;;;;;;;0.50;0.50;;;3.10;99.90;;;;;;4991465;28;20206;-87
2021/01/01 13:34:01;;;;;;;0.50;0.50;;;3.00;99.90;;;;;;4989957;28;20198;-86
2021/01/01 13:36:30;;;;;;;0.50;0.50;;;4.00;99.90;;;;;;4991701;28;20543;-86
2021/01/01 13:38:56;;;;;;;0.50;0.50;;;2.50;99.90;;;;;;4991106;28;20268;-86
2021/01/01 13:41:23;;;;;;;0.50;0.50;;;3.30;99.90;;;;;;4989416;28;20569;-86
2021/01/01 13:43:52;;;;;;;0.50;0.50;;;2.90;99.90;;;;;;4989094;28;20268;-85
2021/01/01 13:46:20;;;;;;;0.50;0.50;;;3.00;99.90;;;;;;4979109;28;20214;-86
2021/01/01 13:48:46;;;;;;;0.50;0.50;;;3.00;99.90;;;;;;4991677;28;20206;-84
2021/01/01 13:51:16;;;;;;;0.52;0.52;;;3.00;99.90;;;;;;4991733;28;20207;-87
2021/01/01 13:53:42;;;;;;;0.50;0.50;;;3.00;99.90;;;;;;4991659;28;20221;-85
2021/01/01 13:56:09;;;;;;;0.50;0.50;;;3.00;99.90;;;;;;4990217;28;20889;-85
2021/01/01 13:58:36;;;;;;;0.50;0.50;;;2.80;99.90;;;;;;4990487;28;20215;-86
2021/01/01 14:01:02;;;;;;;0.50;0.50;;;3.00;99.90;;;;;;4993855;28;20276;-85
2021/01/01 14:03:28;;;;;;;0.50;0.50;;;3.00;99.90;;;;;;4994916;28;20206;-85
2021/01/01 14:05:56;;;;;;;0.50;0.50;;;3.00;99.90;;;;;;4994774;28;20203;-86